sensor_id;sensor_type;location;lat;lon;timestamp;pressure;altitude;pressure_sealevel;temperature;humidity
52777;BME280;38656;54.260;20.822;2024-03-06T00:02:09;101664.03;;;5.69;100.00
52777;BME280;38656;54.260;20.822;2024-03-06T00:04:36;101664.63;;;5.54;100.00
52777;BME280;38656;54.260;20.822;2024-03-06T00:07:02;101671.72;;;5.52;100.00
52777;BME280;38656;54.260;20.822;2024-03-06T00:09:29;101666.72;;;5.45;100.00
52777;BME280;38656;54.260;20.822;2024-03-06T00:11:55;101670.47;;;5.38;100.00
52777;BME280;38656;54.260;20.822;2024-03-06T00:14:23;101669.06;;;5.29;100.00
52777;BME280;38656;54.260;20.822;2024-03-06T00:16:50;101674.22;;;5.31;100.00
52777;BME280;38656;54.260;20.822;2024-03-06T00:19:17;101673.56;;;5.26;100.00
52777;BME280;38656;54.260;20.822;2024-03-06T00:21:43;101672.50;;;5.08;100.00
52777;BME280;38656;54.260;20.822;2024-03-06T00:24:11;101673.75;;;4.97;100.00
52777;BME280;38656;54.260;20.822;2024-03-06T00:26:43;101673.75;;;4.97;100.00
52777;BME280;38656;54.260;20.822;2024-03-06T00:29:10;101671.06;;;4.99;100.00
52777;BME280;38656;54.260;20.822;2024-03-06T00:31:37;101681.09;;;4.88;100.00
52777;BME280;38656;54.260;20.822;2024-03-06T00:34:08;101678.13;;;4.73;100.00
52777;BME280;38656;54.260;20.822;2024-03-06T00:36:35;101679.59;;;4.81;100.00
52777;BME280;38656;54.260;20.822;2024-03-06T00:39:01;101680.41;;;4.83;100.00
52777;BME280;38656;54.260;20.822;2024-03-06T00:41:30;101679.94;;;4.71;100.00
52777;BME280;38656;54.260;20.822;2024-03-06T00:43:56;101680.25;;;4.62;100.00
52777;BME280;38656;54.260;20.822;2024-03-06T00:46:23;101688.03;;;4.64;100.00
52777;BME280;38656;54.260;20.822;2024-03-06T00:48:49;101683.09;;;4.56;100.00
52777;BME280;38656;54.260;20.822;2024-03-06T00:51:15;101684.06;;;4.53;100.00
52777;BME280;38656;54.260;20.822;2024-03-06T00:53:41;101685.28;;;4.43;100.00
52777;BME280;38656;54.260;20.822;2024-03-06T00:56:07;101679.41;;;4.36;100.00
52777;BME280;38656;54.260;20.822;2024-03-06T00:58:34;101689.22;;;4.30;100.00
52777;BME280;38656;54.260;20.822;2024-03-06T01:01:00;101692.16;;;4.20;100.00
52777;BME280;38656;54.260;20.822;2024-03-06T01:03:26;101701.25;;;4.08;100.00
52777;BME280;38656;54.260;20.822;2024-03-06T01:05:52;101697.91;;;4.03;100.00
52777;BME280;38656;54.260;20.822;2024-03-06T01:08:19;101696.38;;;3.98;100.00
52777;BME280;38656;54.260;20.822;2024-03-06T01:10:45;101692.19;;;3.92;100.00
52777;BME280;38656;54.260;20.822;2024-03-06T01:13:12;101691.41;;;3.90;100.00
52777;BME280;38656;54.260;20.822;2024-03-06T01:15:38;101690.63;;;3.86;100.00
52777;BME280;38656;54.260;20.822;2024-03-06T01:18:05;101696.81;;;3.84;100.00
52777;BME280;38656;54.260;20.822;2024-03-06T01:20:31;101696.81;;;3.84;100.00
52777;BME280;38656;54.260;20.822;2024-03-06T01:22:57;101700.34;;;3.83;100.00
52777;BME280;38656;54.260;20.822;2024-03-06T01:25:24;101695.50;;;3.70;100.00
52777;BME280;38656;54.260;20.822;2024-03-06T01:27:50;101707.53;;;3.75;100.00
52777;BME280;38656;54.260;20.822;2024-03-06T01:30:16;101698.13;;;3.70;100.00
52777;BME280;38656;54.260;20.822;2024-03-06T01:32:43;101700.69;;;3.72;100.00
52777;BME280;38656;54.260;20.822;2024-03-06T01:35:09;101701.88;;;3.62;100.00
52777;BME280;38656;54.260;20.822;2024-03-06T01:37:35;101698.47;;;3.58;100.00
52777;BME280;38656;54.260;20.822;2024-03-06T01:40:01;101699.31;;;3.60;100.00
52777;BME280;38656;54.260;20.822;2024-03-06T01:42:30;101701.38;;;3.49;100.00
52777;BME280;38656;54.260;20.822;2024-03-06T01:44:56;101690.94;;;3.49;100.00
52777;BME280;38656;54.260;20.822;2024-03-06T01:47:22;101697.16;;;3.45;100.00
52777;BME280;38656;54.260;20.822;2024-03-06T01:49:49;101695.72;;;3.34;100.00
52777;BME280;38656;54.260;20.822;2024-03-06T01:52:17;101693.13;;;3.34;100.00
52777;BME280;38656;54.260;20.822;2024-03-06T01:54:45;101702.13;;;3.24;100.00
52777;BME280;38656;54.260;20.822;2024-03-06T01:57:14;101698.69;;;3.22;100.00
52777;BME280;38656;54.260;20.822;2024-03-06T01:59:42;101694.53;;;3.16;100.00
52777;BME280;38656;54.260;20.822;2024-03-06T02:02:08;101697.44;;;3.06;100.00
52777;BME280;38656;54.260;20.822;2024-03-06T02:04:37;101702.66;;;3.06;100.00
52777;BME280;38656;54.260;20.822;2024-03-06T02:07:07;101704.34;;;3.07;100.00
52777;BME280;38656;54.260;20.822;2024-03-06T02:09:34;101714.06;;;3.01;100.00
52777;BME280;38656;54.260;20.822;2024-03-06T02:12:00;101716.81;;;2.97;100.00
52777;BME280;38656;54.260;20.822;2024-03-06T02:14:26;101722.00;;;2.98;100.00
52777;BME280;38656;54.260;20.822;2024-03-06T02:16:53;101726.59;;;2.89;100.00
52777;BME280;38656;54.260;20.822;2024-03-06T02:19:19;101723.94;;;2.90;100.00
52777;BME280;38656;54.260;20.822;2024-03-06T02:21:45;101731.22;;;2.79;100.00
52777;BME280;38656;54.260;20.822;2024-03-06T02:24:11;101732.91;;;2.80;100.00
52777;BME280;38656;54.260;20.822;2024-03-06T02:26:39;101738.13;;;2.80;100.00
52777;BME280;38656;54.260;20.822;2024-03-06T02:29:06;101740.09;;;2.72;100.00
52777;BME280;38656;54.260;20.822;2024-03-06T02:31:32;101738.38;;;2.71;100.00
52777;BME280;38656;54.260;20.822;2024-03-06T02:33:59;101741.28;;;2.60;100.00
52777;BME280;38656;54.260;20.822;2024-03-06T02:36:25;101741.97;;;2.67;100.00
52777;BME280;38656;54.260;20.822;2024-03-06T02:38:51;101749.13;;;2.58;100.00
52777;BME280;38656;54.260;20.822;2024-03-06T02:41:18;101742.31;;;2.53;100.00
52777;BME280;38656;54.260;20.822;2024-03-06T02:43:46;101740.88;;;2.41;100.00
52777;BME280;38656;54.260;20.822;2024-03-06T02:46:12;101745.13;;;2.45;100.00
52777;BME280;38656;54.260;20.822;2024-03-06T02:48:38;101746.28;;;2.33;100.00
52777;BME280;38656;54.260;20.822;2024-03-06T02:51:05;101747.09;;;2.37;100.00
52777;BME280;38656;54.260;20.822;2024-03-06T02:53:31;101753.38;;;2.28;100.00
52777;BME280;38656;54.260;20.822;2024-03-06T02:55:57;101757.78;;;2.26;100.00
52777;BME280;38656;54.260;20.822;2024-03-06T02:58:23;101771.81;;;2.20;100.00
52777;BME280;38656;54.260;20.822;2024-03-06T03:00:49;101769.28;;;2.17;100.00
52777;BME280;38656;54.260;20.822;2024-03-06T03:03:16;101769.28;;;2.17;100.00
52777;BME280;38656;54.260;20.822;2024-03-06T03:05:42;101765.97;;;2.09;100.00
52777;BME280;38656;54.260;20.822;2024-03-06T03:08:09;101771.03;;;2.15;100.00
52777;BME280;38656;54.260;20.822;2024-03-06T03:10:35;101772.91;;;2.10;100.00
52777;BME280;38656;54.260;20.822;2024-03-06T03:13:02;101779.91;;;2.08;100.00
52777;BME280;38656;54.260;20.822;2024-03-06T03:15:28;101784.97;;;2.14;100.00
52777;BME280;38656;54.260;20.822;2024-03-06T03:17:54;101776.53;;;2.03;100.00
52777;BME280;38656;54.260;20.822;2024-03-06T03:20:20;101780.84;;;2.05;100.00
52777;BME280;38656;54.260;20.822;2024-03-06T03:22:46;101792.25;;;2.00;100.00
52777;BME280;38656;54.260;20.822;2024-03-06T03:25:13;101789.00;;;1.90;100.00
52777;BME280;38656;54.260;20.822;2024-03-06T03:27:40;101793.28;;;1.92;100.00
52777;BME280;38656;54.260;20.822;2024-03-06T03:30:11;101795.94;;;1.89;100.00
52777;BME280;38656;54.260;20.822;2024-03-06T03:32:40;101802.31;;;1.76;100.00
52777;BME280;38656;54.260;20.822;2024-03-06T03:35:07;101802.16;;;1.84;100.00
52777;BME280;38656;54.260;20.822;2024-03-06T03:37:35;101807.47;;;1.77;100.00
52777;BME280;38656;54.260;20.822;2024-03-06T03:40:01;101801.56;;;1.71;100.00
52777;BME280;38656;54.260;20.822;2024-03-06T03:42:28;101805.09;;;1.67;100.00
52777;BME280;38656;54.260;20.822;2024-03-06T03:44:54;101805.88;;;1.72;100.00
52777;BME280;38656;54.260;20.822;2024-03-06T03:47:21;101808.69;;;1.63;100.00
52777;BME280;38656;54.260;20.822;2024-03-06T03:49:47;101807.16;;;1.52;100.00
52777;BME280;38656;54.260;20.822;2024-03-06T03:52:13;101807.16;;;1.52;100.00
52777;BME280;38656;54.260;20.822;2024-03-06T03:54:39;101806.22;;;1.55;100.00
52777;BME280;38656;54.260;20.822;2024-03-06T03:57:06;101805.31;;;1.57;100.00
52777;BME280;38656;54.260;20.822;2024-03-06T03:59:34;101806.25;;;1.53;100.00
52777;BME280;38656;54.260;20.822;2024-03-06T04:02:00;101805.44;;;1.51;100.00
52777;BME280;38656;54.260;20.822;2024-03-06T04:04:26;101806.53;;;1.39;100.00
52777;BME280;38656;54.260;20.822;2024-03-06T04:06:52;101809.09;;;1.41;100.00
52777;BME280;38656;54.260;20.822;2024-03-06T04:09:18;101811.75;;;1.39;100.00
52777;BME280;38656;54.260;20.822;2024-03-06T04:11:44;101813.44;;;1.42;100.00
52777;BME280;38656;54.260;20.822;2024-03-06T04:14:11;101813.53;;;1.37;100.00
52777;BME280;38656;54.260;20.822;2024-03-06T04:16:37;101816.22;;;1.33;100.00
52777;BME280;38656;54.260;20.822;2024-03-06T04:19:04;101817.91;;;1.34;100.00
52777;BME280;38656;54.260;20.822;2024-03-06T04:21:30;101822.25;;;1.35;100.00
52777;BME280;38656;54.260;20.822;2024-03-06T04:23:56;101821.44;;;1.33;100.00
52777;BME280;38656;54.260;20.822;2024-03-06T04:26:24;101826.69;;;1.30;100.00
52777;BME280;38656;54.260;20.822;2024-03-06T04:28:50;101824.97;;;1.29;100.00
52777;BME280;38656;54.260;20.822;2024-03-06T04:31:16;101825.88;;;1.26;100.00
52777;BME280;38656;54.260;20.822;2024-03-06T04:33:42;101835.41;;;1.27;100.00
52777;BME280;38656;54.260;20.822;2024-03-06T04:36:09;101828.38;;;1.31;100.00
52777;BME280;38656;54.260;20.822;2024-03-06T04:38:36;101835.56;;;1.19;100.00
52777;BME280;38656;54.260;20.822;2024-03-06T04:41:02;101830.28;;;1.22;100.00
52777;BME280;38656;54.260;20.822;2024-03-06T04:43:30;101838.19;;;1.18;100.00
52777;BME280;38656;54.260;20.822;2024-03-06T04:45:57;101837.47;;;1.08;100.00
52777;BME280;38656;54.260;20.822;2024-03-06T04:48:23;101839.84;;;1.20;100.00
52777;BME280;38656;54.260;20.822;2024-03-06T04:53:15;101850.28;;;1.19;100.00
52777;BME280;38656;54.260;20.822;2024-03-06T04:55:41;101846.78;;;1.21;100.00
52777;BME280;38656;54.260;20.822;2024-03-06T04:58:07;101850.41;;;1.13;100.00
52777;BME280;38656;54.260;20.822;2024-03-06T05:00:34;101858.13;;;1.17;100.00
52777;BME280;38656;54.260;20.822;2024-03-06T05:03:00;101852.28;;;1.06;100.00
52777;BME280;38656;54.260;20.822;2024-03-06T05:05:27;101858.19;;;1.14;100.00
52777;BME280;38656;54.260;20.822;2024-03-06T05:07:53;101855.75;;;1.05;100.00
52777;BME280;38656;54.260;20.822;2024-03-06T05:10:19;101862.69;;;1.06;100.00
52777;BME280;38656;54.260;20.822;2024-03-06T05:12:45;101863.56;;;1.05;100.00
52777;BME280;38656;54.260;20.822;2024-03-06T05:15:12;101879.38;;;0.93;100.00
52777;BME280;38656;54.260;20.822;2024-03-06T05:17:38;101872.34;;;0.98;100.00
52777;BME280;38656;54.260;20.822;2024-03-06T05:20:05;101871.59;;;0.91;100.00
52777;BME280;38656;54.260;20.822;2024-03-06T05:22:31;101876.69;;;0.97;100.00
52777;BME280;38656;54.260;20.822;2024-03-06T05:24:57;101874.13;;;0.96;100.00
52777;BME280;38656;54.260;20.822;2024-03-06T05:27:24;101886.31;;;0.94;100.00
52777;BME280;38656;54.260;20.822;2024-03-06T05:29:50;101893.34;;;0.85;100.00
52777;BME280;38656;54.260;20.822;2024-03-06T05:32:17;101893.28;;;0.90;100.00
52777;BME280;38656;54.260;20.822;2024-03-06T05:34:43;101895.91;;;0.88;100.00
52777;BME280;38656;54.260;20.822;2024-03-06T05:37:10;101898.28;;;1.01;100.00
52777;BME280;38656;54.260;20.822;2024-03-06T05:39:36;101901.81;;;0.98;100.00
52777;BME280;38656;54.260;20.822;2024-03-06T05:42:07;101898.44;;;0.92;100.00
52777;BME280;38656;54.260;20.822;2024-03-06T05:44:33;101897.53;;;0.96;100.00
52777;BME280;38656;54.260;20.822;2024-03-06T05:47:00;101911.31;;;1.02;100.00
52777;BME280;38656;54.260;20.822;2024-03-06T05:49:27;101908.69;;;1.01;100.00
52777;BME280;38656;54.260;20.822;2024-03-06T05:51:54;101914.66;;;1.08;100.00
52777;BME280;38656;54.260;20.822;2024-03-06T05:54:21;101905.84;;;1.16;100.00
52777;BME280;38656;54.260;20.822;2024-03-06T05:56:51;101918.88;;;1.16;100.00
52777;BME280;38656;54.260;20.822;2024-03-06T05:59:18;101908.13;;;1.35;100.00
52777;BME280;38656;54.260;20.822;2024-03-06T06:01:44;101914.69;;;1.54;100.00
52777;BME280;38656;54.260;20.822;2024-03-06T06:04:11;101921.75;;;1.49;100.00
52777;BME280;38656;54.260;20.822;2024-03-06T06:06:39;101913.50;;;1.72;100.00
52777;BME280;38656;54.260;20.822;2024-03-06T06:09:06;101921.16;;;1.80;100.00
52777;BME280;38656;54.260;20.822;2024-03-06T06:11:33;101923.09;;;2.12;100.00
52777;BME280;38656;54.260;20.822;2024-03-06T06:13:59;101929.47;;;2.40;100.00
52777;BME280;38656;54.260;20.822;2024-03-06T06:16:25;101922.34;;;2.84;100.00
52777;BME280;38656;54.260;20.822;2024-03-06T06:18:52;101930.97;;;3.22;100.00
52777;BME280;38656;54.260;20.822;2024-03-06T06:21:18;101927.50;;;3.56;100.00
52777;BME280;38656;54.260;20.822;2024-03-06T06:23:44;101935.03;;;3.98;100.00
52777;BME280;38656;54.260;20.822;2024-03-06T06:26:13;101929.03;;;4.26;100.00
52777;BME280;38656;54.260;20.822;2024-03-06T06:28:41;101937.00;;;4.50;100.00
52777;BME280;38656;54.260;20.822;2024-03-06T06:31:08;101934.75;;;4.94;100.00
52777;BME280;38656;54.260;20.822;2024-03-06T06:33:34;101949.84;;;4.57;100.00
52777;BME280;38656;54.260;20.822;2024-03-06T06:36:00;101946.63;;;4.77;100.00
52777;BME280;38656;54.260;20.822;2024-03-06T06:38:26;101943.47;;;4.94;100.00
52777;BME280;38656;54.260;20.822;2024-03-06T06:40:53;101942.28;;;5.80;100.00
52777;BME280;38656;54.260;20.822;2024-03-06T06:43:19;101944.91;;;6.06;100.00
52777;BME280;38656;54.260;20.822;2024-03-06T06:45:45;101951.81;;;6.07;100.00
52777;BME280;38656;54.260;20.822;2024-03-06T06:48:11;101948.59;;;6.24;100.00
52777;BME280;38656;54.260;20.822;2024-03-06T06:50:38;101956.94;;;6.11;100.00
52777;BME280;38656;54.260;20.822;2024-03-06T06:53:04;101963.28;;;5.79;100.00
52777;BME280;38656;54.260;20.822;2024-03-06T06:55:31;101960.63;;;5.80;100.00
52777;BME280;38656;54.260;20.822;2024-03-06T06:57:57;101965.22;;;5.99;100.00
52777;BME280;38656;54.260;20.822;2024-03-06T07:00:26;101962.78;;;6.64;100.00
52777;BME280;38656;54.260;20.822;2024-03-06T07:02:52;101970.06;;;6.79;100.00
52777;BME280;38656;54.260;20.822;2024-03-06T07:05:18;101971.81;;;7.01;100.00
52777;BME280;38656;54.260;20.822;2024-03-06T07:07:44;101976.47;;;6.72;100.00
52777;BME280;38656;54.260;20.822;2024-03-06T07:10:11;101979.91;;;6.96;100.00
52777;BME280;38656;54.260;20.822;2024-03-06T07:12:37;101981.38;;;7.24;100.00
52777;BME280;38656;54.260;20.822;2024-03-06T07:15:03;101976.56;;;6.93;100.00
52777;BME280;38656;54.260;20.822;2024-03-06T07:17:30;101976.94;;;6.82;100.00
52777;BME280;38656;54.260;20.822;2024-03-06T07:19:56;101977.44;;;7.14;100.00
52777;BME280;38656;54.260;20.822;2024-03-06T07:22:23;101978.66;;;7.05;100.00
52777;BME280;38656;54.260;20.822;2024-03-06T07:24:49;101973.66;;;7.62;100.00
52777;BME280;38656;54.260;20.822;2024-03-06T07:27:16;101978.59;;;7.70;100.00
52777;BME280;38656;54.260;20.822;2024-03-06T07:29:42;101982.25;;;7.86;100.00
52777;BME280;38656;54.260;20.822;2024-03-06T07:32:08;101979.91;;;7.80;100.00
52777;BME280;38656;54.260;20.822;2024-03-06T07:34:34;101988.81;;;7.55;100.00
52777;BME280;38656;54.260;20.822;2024-03-06T07:37:00;101996.59;;;7.38;100.00
52777;BME280;38656;54.260;20.822;2024-03-06T07:39:27;101985.78;;;7.23;100.00
52777;BME280;38656;54.260;20.822;2024-03-06T07:41:54;101985.22;;;7.58;100.00
52777;BME280;38656;54.260;20.822;2024-03-06T07:44:20;101989.44;;;7.62;100.00
52777;BME280;38656;54.260;20.822;2024-03-06T07:46:47;101995.78;;;7.97;100.00
52777;BME280;38656;54.260;20.822;2024-03-06T07:49:13;101993.38;;;8.12;100.00
52777;BME280;38656;54.260;20.822;2024-03-06T07:51:39;101990.03;;;8.48;100.00
52777;BME280;38656;54.260;20.822;2024-03-06T07:54:06;101992.69;;;8.27;100.00
52777;BME280;38656;54.260;20.822;2024-03-06T07:56:33;102004.94;;;8.28;100.00
52777;BME280;38656;54.260;20.822;2024-03-06T07:58:59;101990.78;;;7.91;100.00
52777;BME280;38656;54.260;20.822;2024-03-06T08:01:26;102003.81;;;8.53;100.00
52777;BME280;38656;54.260;20.822;2024-03-06T08:03:54;102006.19;;;9.67;100.00
52777;BME280;38656;54.260;20.822;2024-03-06T08:06:21;102006.16;;;10.52;100.00
52777;BME280;38656;54.260;20.822;2024-03-06T08:08:47;102006.56;;;9.60;100.00
52777;BME280;38656;54.260;20.822;2024-03-06T08:11:16;102015.34;;;9.43;100.00
52777;BME280;38656;54.260;20.822;2024-03-06T08:13:44;102014.53;;;9.93;100.00
52777;BME280;38656;54.260;20.822;2024-03-06T08:16:10;102016.16;;;10.29;100.00
52777;BME280;38656;54.260;20.822;2024-03-06T08:18:37;102022.84;;;9.15;100.00
52777;BME280;38656;54.260;20.822;2024-03-06T08:21:03;102023.09;;;9.63;100.00
52777;BME280;38656;54.260;20.822;2024-03-06T08:23:32;102023.50;;;10.06;100.00
52777;BME280;38656;54.260;20.822;2024-03-06T08:25:59;102026.31;;;10.03;100.00
52777;BME280;38656;54.260;20.822;2024-03-06T08:28:26;102028.84;;;9.71;100.00
52777;BME280;38656;54.260;20.822;2024-03-06T08:30:53;102024.63;;;9.50;100.00
52777;BME280;38656;54.260;20.822;2024-03-06T08:33:19;102031.00;;;9.63;100.00
52777;BME280;38656;54.260;20.822;2024-03-06T08:35:47;102030.00;;;10.17;100.00
52777;BME280;38656;54.260;20.822;2024-03-06T08:38:13;102032.06;;;10.77;100.00
52777;BME280;38656;54.260;20.822;2024-03-06T08:40:39;102040.56;;;10.50;100.00
52777;BME280;38656;54.260;20.822;2024-03-06T08:43:07;102037.09;;;10.32;100.00
52777;BME280;38656;54.260;20.822;2024-03-06T08:45:35;102037.50;;;10.90;100.00
52777;BME280;38656;54.260;20.822;2024-03-06T08:48:01;102045.00;;;10.66;100.00
52777;BME280;38656;54.260;20.822;2024-03-06T08:50:27;102044.66;;;11.80;100.00
52777;BME280;38656;54.260;20.822;2024-03-06T08:52:53;102050.41;;;12.32;93.81
52777;BME280;38656;54.260;20.822;2024-03-06T08:55:19;102056.22;;;11.33;92.80
52777;BME280;38656;54.260;20.822;2024-03-06T08:57:45;102058.53;;;12.14;95.39
52777;BME280;38656;54.260;20.822;2024-03-06T09:00:12;102051.00;;;12.23;91.31
52777;BME280;38656;54.260;20.822;2024-03-06T09:02:40;102053.06;;;12.03;93.33
52777;BME280;38656;54.260;20.822;2024-03-06T09:05:07;102059.31;;;12.45;90.73
52777;BME280;38656;54.260;20.822;2024-03-06T09:07:34;102059.84;;;12.50;89.95
52777;BME280;38656;54.260;20.822;2024-03-06T09:10:07;102064.78;;;11.99;90.23
52777;BME280;38656;54.260;20.822;2024-03-06T09:12:33;102058.97;;;13.20;92.49
52777;BME280;38656;54.260;20.822;2024-03-06T09:15:00;102065.53;;;12.59;85.37
52777;BME280;38656;54.260;20.822;2024-03-06T09:17:26;102070.63;;;11.74;87.65
52777;BME280;38656;54.260;20.822;2024-03-06T09:19:53;102069.06;;;11.85;90.52
52777;BME280;38656;54.260;20.822;2024-03-06T09:22:19;102063.75;;;11.85;87.87
52777;BME280;38656;54.260;20.822;2024-03-06T09:24:45;102064.31;;;12.21;86.25
52777;BME280;38656;54.260;20.822;2024-03-06T09:27:12;102065.91;;;11.48;87.54
52777;BME280;38656;54.260;20.822;2024-03-06T09:29:40;102070.59;;;11.90;88.56
52777;BME280;38656;54.260;20.822;2024-03-06T09:32:07;102073.28;;;11.43;89.28
52777;BME280;38656;54.260;20.822;2024-03-06T09:34:33;102071.09;;;11.96;91.48
52777;BME280;38656;54.260;20.822;2024-03-06T09:36:59;102065.50;;;12.73;84.24
52777;BME280;38656;54.260;20.822;2024-03-06T09:39:25;102070.53;;;13.05;85.64
52777;BME280;38656;54.260;20.822;2024-03-06T09:41:52;102072.03;;;13.63;80.97
52777;BME280;38656;54.260;20.822;2024-03-06T09:44:20;102073.16;;;13.19;78.10
52777;BME280;38656;54.260;20.822;2024-03-06T09:46:48;102079.69;;;12.72;78.02
52777;BME280;38656;54.260;20.822;2024-03-06T09:49:18;102072.91;;;12.68;80.83
52777;BME280;38656;54.260;20.822;2024-03-06T09:51:45;102084.13;;;13.55;78.85
52777;BME280;38656;54.260;20.822;2024-03-06T09:54:13;102085.03;;;13.94;75.47
52777;BME280;38656;54.260;20.822;2024-03-06T09:56:43;102082.59;;;13.38;78.49
52777;BME280;38656;54.260;20.822;2024-03-06T09:59:09;102082.59;;;13.38;75.84
52777;BME280;38656;54.260;20.822;2024-03-06T10:01:43;102093.28;;;13.09;76.67
52777;BME280;38656;54.260;20.822;2024-03-06T10:04:22;102079.84;;;14.69;72.57
52777;BME280;38656;54.260;20.822;2024-03-06T10:06:52;102081.13;;;13.87;69.98
52777;BME280;38656;54.260;20.822;2024-03-06T10:09:20;102085.22;;;13.65;74.93
52777;BME280;38656;54.260;20.822;2024-03-06T10:11:47;102080.34;;;13.72;71.13
52777;BME280;38656;54.260;20.822;2024-03-06T10:14:14;102086.66;;;13.56;71.11
52777;BME280;38656;54.260;20.822;2024-03-06T10:17:00;102076.13;;;13.82;68.47
52777;BME280;38656;54.260;20.822;2024-03-06T10:19:28;102083.34;;;14.31;72.77
52777;BME280;38656;54.260;20.822;2024-03-06T10:21:55;102082.31;;;14.21;71.29
52777;BME280;38656;54.260;20.822;2024-03-06T10:24:27;102079.53;;;13.97;69.05
52777;BME280;38656;54.260;20.822;2024-03-06T10:26:55;102079.97;;;14.29;64.56
52777;BME280;38656;54.260;20.822;2024-03-06T10:29:24;102072.72;;;14.70;64.62
52777;BME280;38656;54.260;20.822;2024-03-06T10:31:54;102076.47;;;14.29;66.40
52777;BME280;38656;54.260;20.822;2024-03-06T10:34:21;102068.06;;;14.61;62.65
52777;BME280;38656;54.260;20.822;2024-03-06T10:39:20;102069.22;;;14.18;67.37
52777;BME280;38656;54.260;20.822;2024-03-06T10:41:52;102071.88;;;14.18;65.54
52777;BME280;38656;54.260;20.822;2024-03-06T10:44:22;102068.28;;;14.06;66.20
52777;BME280;38656;54.260;20.822;2024-03-06T10:46:58;102072.31;;;13.19;66.33
52777;BME280;38656;54.260;20.822;2024-03-06T10:49:27;102070.56;;;13.59;63.82
52777;BME280;38656;54.260;20.822;2024-03-06T10:52:00;102081.53;;;12.28;71.98
52777;BME280;38656;54.260;20.822;2024-03-06T10:54:30;102072.84;;;13.38;71.44
52777;BME280;38656;54.260;20.822;2024-03-06T10:56:58;102065.50;;;13.82;64.27
52777;BME280;38656;54.260;20.822;2024-03-06T10:59:28;102074.75;;;13.89;64.87
52777;BME280;38656;54.260;20.822;2024-03-06T11:01:56;102073.66;;;15.06;60.31
52777;BME280;38656;54.260;20.822;2024-03-06T11:04:29;102073.19;;;14.12;57.86
52777;BME280;38656;54.260;20.822;2024-03-06T11:06:57;102070.53;;;15.96;56.45
52777;BME280;38656;54.260;20.822;2024-03-06T11:09:27;102075.06;;;15.47;52.89
52777;BME280;38656;54.260;20.822;2024-03-06T11:11:54;102075.50;;;14.17;58.72
52777;BME280;38656;54.260;20.822;2024-03-06T11:14:22;102069.72;;;12.34;69.41
52777;BME280;38656;54.260;20.822;2024-03-06T11:17:18;102072.56;;;12.45;76.03
52777;BME280;38656;54.260;20.822;2024-03-06T11:28:17;102053.84;;;13.97;57.69
52777;BME280;38656;54.260;20.822;2024-03-06T11:31:04;102065.59;;;14.45;52.18
52777;BME280;38656;54.260;20.822;2024-03-06T11:33:40;102053.59;;;13.75;63.73
52777;BME280;38656;54.260;20.822;2024-03-06T11:36:26;102064.81;;;13.25;66.58
52777;BME280;38656;54.260;20.822;2024-03-06T11:38:57;102060.72;;;13.87;61.49
52777;BME280;38656;54.260;20.822;2024-03-06T11:41:30;102050.41;;;14.47;54.12
52777;BME280;38656;54.260;20.822;2024-03-06T11:43:59;102054.84;;;14.59;55.94
52777;BME280;38656;54.260;20.822;2024-03-06T11:49:21;102057.75;;;15.42;51.25
52777;BME280;38656;54.260;20.822;2024-03-06T11:51:51;102060.59;;;14.66;48.22
52777;BME280;38656;54.260;20.822;2024-03-06T11:54:17;102059.13;;;14.23;52.79
52777;BME280;38656;54.260;20.822;2024-03-06T11:56:50;102061.88;;;14.34;53.19
52777;BME280;38656;54.260;20.822;2024-03-06T11:59:20;102061.66;;;14.50;52.84
52777;BME280;38656;54.260;20.822;2024-03-06T12:01:46;102063.75;;;14.58;51.54
52777;BME280;38656;54.260;20.822;2024-03-06T12:04:14;102056.25;;;14.26;51.48
52777;BME280;38656;54.260;20.822;2024-03-06T12:06:40;102063.38;;;14.13;53.64
52777;BME280;38656;54.260;20.822;2024-03-06T12:09:06;102063.28;;;13.36;55.47
52777;BME280;38656;54.260;20.822;2024-03-06T12:11:37;102056.22;;;14.52;55.84
52777;BME280;38656;54.260;20.822;2024-03-06T12:14:03;102061.97;;;14.46;58.66
52777;BME280;38656;54.260;20.822;2024-03-06T12:16:30;102059.34;;;14.20;60.48
52777;BME280;38656;54.260;20.822;2024-03-06T12:18:57;102063.19;;;14.03;60.24
52777;BME280;38656;54.260;20.822;2024-03-06T12:21:28;102048.53;;;13.97;61.30
52777;BME280;38656;54.260;20.822;2024-03-06T12:24:05;102063.38;;;14.51;59.32
52777;BME280;38656;54.260;20.822;2024-03-06T12:26:32;102058.88;;;15.26;53.93
52777;BME280;38656;54.260;20.822;2024-03-06T12:29:09;102057.28;;;15.83;51.60
52777;BME280;38656;54.260;20.822;2024-03-06T12:31:37;102056.69;;;17.04;47.07
52777;BME280;38656;54.260;20.822;2024-03-06T12:34:05;102054.03;;;14.20;52.49
52777;BME280;38656;54.260;20.822;2024-03-06T12:36:32;102060.22;;;14.08;60.21
52777;BME280;38656;54.260;20.822;2024-03-06T12:38:59;102059.56;;;15.17;58.79
52777;BME280;38656;54.260;20.822;2024-03-06T12:41:26;102070.94;;;14.19;57.28
52777;BME280;38656;54.260;20.822;2024-03-06T12:43:54;102067.63;;;12.39;64.89
52777;BME280;38656;54.260;20.822;2024-03-06T12:46:21;102076.16;;;14.08;62.39
52777;BME280;38656;54.260;20.822;2024-03-06T12:48:48;102075.19;;;15.21;55.88
52777;BME280;38656;54.260;20.822;2024-03-06T12:51:14;102078.16;;;15.06;51.36
52777;BME280;38656;54.260;20.822;2024-03-06T12:53:40;102072.94;;;15.99;49.06
52777;BME280;38656;54.260;20.822;2024-03-06T12:56:07;102084.00;;;13.02;59.77
52777;BME280;38656;54.260;20.822;2024-03-06T12:58:33;102067.31;;;13.94;59.62